NCAR-RAP Real-Time Weather Data

Output produced by METARs form (23 June 2018  16:11 UTC)
found at http://weather.rap.ucar.edu/surface/
 
Conditions at: KLEE observed 23 June 2018  14:53 UTC
Temperature: 30.6°C (87°F)
Dewpoint: 24.4°C (76°F) [RH = 70%]
Pressure (altimeter): 30.04 inches Hg (1017.4 mb)
[Sea-level pressure: 1016.9 mb]
Winds: from the W (280 degrees) at 9 MPH (8 knots; 4.2 m/s)
Visibility: 10 or more miles (16+ km)
Ceiling: at least 12,000 feet AGL
Clouds: few clouds at 3200 feet AGL
Present Weather: no significant weather observed at this time
KLEE 231453Z 28008KT 10SM FEW032 31/24 A3004 RMK AO2 SLP169 T03060244 51007

Conditions at: KLEE observed 23 June 2018  13:53 UTC
Temperature: 29.4°C (85°F)
Dewpoint: 24.4°C (76°F) [RH = 75%]
Pressure (altimeter): 30.03 inches Hg (1017.0 mb)
[Sea-level pressure: 1016.8 mb]
Winds: from the W (280 degrees) at 12 MPH (10 knots; 5.2 m/s)
Visibility: 10 or more miles (16+ km)
Ceiling: at least 12,000 feet AGL
Clouds: scattered clouds at 2400 feet AGL
Present Weather: no significant weather observed at this time
KLEE 231353Z 28010KT 10SM SCT024 29/24 A3003 RMK AO2 SLP168 T02940244

Conditions at: KLEE observed 23 June 2018  12:53 UTC
Temperature: 28.3°C (83°F)
Dewpoint: 25.6°C (78°F) [RH = 85%]
Pressure (altimeter): 30.03 inches Hg (1017.0 mb)
[Sea-level pressure: 1016.7 mb]
Winds: from the WSW (240 degrees) at 8 MPH (7 knots; 3.6 m/s)
Visibility: 10 or more miles (16+ km)
Ceiling: at least 12,000 feet AGL
Clouds: sky clear below 12,000 feet AGL
Present Weather: no significant weather observed at this time
KLEE 231253Z 24007KT 10SM CLR 28/26 A3003 RMK AO2 SLP167 T02830256

Conditions at: KLEE observed 23 June 2018  11:53 UTC
Temperature: 26.7°C (80°F)
Dewpoint: 25.6°C (78°F) [RH = 94%]
Pressure (altimeter): 30.01 inches Hg (1016.3 mb)
[Sea-level pressure: 1016.2 mb]
Winds: from the SSW (210 degrees) at 5 MPH (4 knots; 2.1 m/s)
Visibility: 9 miles (14 km)
Ceiling: at least 12,000 feet AGL
Clouds: sky clear below 12,000 feet AGL
Present Weather: no significant weather observed at this time
KLEE 231153Z 21004KT 9SM CLR 27/26 A3001 RMK AO2 SLP162 70001 T02670256 10267 20256 53014

Conditions at: KLEE observed 23 June 2018  10:53 UTC
Temperature: 26.1°C (79°F)
Dewpoint: 25.6°C (78°F) [RH = 97%]
Pressure (altimeter): 29.99 inches Hg (1015.7 mb)
[Sea-level pressure: 1015.5 mb]
Winds: from the SW (230 degrees) at 5 MPH (4 knots; 2.1 m/s)
Visibility: 10 or more miles (16+ km)
Ceiling: at least 12,000 feet AGL
Clouds: sky clear below 12,000 feet AGL
Present Weather: no significant weather observed at this time
KLEE 231053Z 23004KT 10SM CLR 26/26 A2999 RMK AO2 SLP155 T02610256

Conditions at: KLEE observed 23 June 2018  09:53 UTC
Temperature: 25.6°C (78°F)
Dewpoint: 25.6°C (78°F) [RH = 100%]
Pressure (altimeter): 29.98 inches Hg (1015.3 mb)
[Sea-level pressure: 1015.0 mb]
Winds: from the SSW (210 degrees) at 5 MPH (4 knots; 2.1 m/s)
Visibility: 7 miles (11 km)
Ceiling: at least 12,000 feet AGL
Clouds: sky clear below 12,000 feet AGL
Present Weather: automated observation with no human augmentation;
there may or may not be significant weather present at this time
KLEE 230953Z AUTO 21004KT 7SM CLR 26/26 A2998 RMK AO2 SLP150 T02560256

Conditions at: KLEE observed 23 June 2018  08:53 UTC
Temperature: 26.1°C (79°F)
Dewpoint: 25.6°C (78°F) [RH = 97%]
Pressure (altimeter): 29.97 inches Hg (1015.0 mb)
[Sea-level pressure: 1014.8 mb]
Winds: from the SSW (210 degrees) at 5 MPH (4 knots; 2.1 m/s)
Visibility: 8 miles (13 km)
Ceiling: at least 12,000 feet AGL
Clouds: sky clear below 12,000 feet AGL
Present Weather: automated observation with no human augmentation;
there may or may not be significant weather present at this time
KLEE 230853Z AUTO 21004KT 8SM CLR 26/26 A2997 RMK AO2 SLP148 T02610256 58004

Conditions at: KLEE observed 23 June 2018  07:53 UTC
Temperature: 26.1°C (79°F)
Dewpoint: 25.6°C (78°F) [RH = 97%]
Pressure (altimeter): 29.98 inches Hg (1015.3 mb)
[Sea-level pressure: 1015.0 mb]
Winds: from the S (190 degrees) at 5 MPH (4 knots; 2.1 m/s)
Visibility: 8 miles (13 km)
Ceiling: at least 12,000 feet AGL
Clouds: sky clear below 12,000 feet AGL
Present Weather: automated observation with no human augmentation;
there may or may not be significant weather present at this time
KLEE 230753Z AUTO 19004KT 8SM CLR 26/26 A2998 RMK AO2 SLP150 T02610256

Conditions at: KLEE observed 23 June 2018  06:53 UTC
Temperature: 26.1°C (79°F)
Dewpoint: 25.0°C (77°F) [RH = 94%]
Pressure (altimeter): 29.98 inches Hg (1015.3 mb)
[Sea-level pressure: 1015.1 mb]
Winds: from the SSW (210 degrees) at 3 MPH (3 knots; 1.6 m/s)
Visibility: 8 miles (13 km)
Ceiling: at least 12,000 feet AGL
Clouds: sky clear below 12,000 feet AGL
Present Weather: automated observation with no human augmentation;
there may or may not be significant weather present at this time
KLEE 230653Z AUTO 21003KT 8SM CLR 26/25 A2998 RMK AO2 SLP151 T02610250

Conditions at: KLEE observed 23 June 2018  05:53 UTC
Temperature: 26.1°C (79°F)
Dewpoint: 25.0°C (77°F) [RH = 94%]
Pressure (altimeter): 29.98 inches Hg (1015.3 mb)
[Sea-level pressure: 1015.2 mb]
Winds: from the SSW (210 degrees) at 3 MPH (3 knots; 1.6 m/s)
Visibility: 8 miles (13 km)
Ceiling: at least 12,000 feet AGL
Clouds: sky clear below 12,000 feet AGL
Present Weather: automated observation with no human augmentation;
there may or may not be significant weather present at this time
KLEE 230553Z AUTO 21003KT 8SM CLR 26/25 A2998 RMK AO2 SLP152 T02610250 10306 20261 58001

Conditions at: KLEE observed 23 June 2018  04:53 UTC
Temperature: 26.7°C (80°F)
Dewpoint: 25.0°C (77°F) [RH = 90%]
Pressure (altimeter): 30.00 inches Hg (1016.0 mb)
[Sea-level pressure: 1015.6 mb]
Winds: calm
Visibility: 9 miles (14 km)
Ceiling: at least 12,000 feet AGL
Clouds: sky clear below 12,000 feet AGL
Present Weather: automated observation with no human augmentation;
there may or may not be significant weather present at this time
KLEE 230453Z AUTO 00000KT 9SM CLR 27/25 A3000 RMK AO2 SLP156 T02670250 403280261

Conditions at: KLEE observed 23 June 2018  03:53 UTC
Temperature: 27.8°C (82°F)
Dewpoint: 25.0°C (77°F) [RH = 85%]
Pressure (altimeter): 30.00 inches Hg (1016.0 mb)
[Sea-level pressure: 1015.8 mb]
Winds: missing
Visibility: 10 or more miles (16+ km)
Ceiling: at least 12,000 feet AGL
Clouds: sky clear below 12,000 feet AGL
Present Weather: automated observation with no human augmentation;
there may or may not be significant weather present at this time
KLEE 230353Z AUTO 10SM CLR 28/25 A3000 RMK AO2 SLP158 T02780250

Conditions at: KLEE observed 23 June 2018  02:53 UTC
Temperature: 28.3°C (83°F)
Dewpoint: 25.0°C (77°F) [RH = 82%]
Pressure (altimeter): 29.99 inches Hg (1015.7 mb)
[Sea-level pressure: 1015.3 mb]
Winds: missing
Visibility: 10 or more miles (16+ km)
Ceiling: at least 12,000 feet AGL
Clouds: sky clear below 12,000 feet AGL
Present Weather:
SOME DATA ABOVE MAY BE INACCURATE!!!
"$" is an indication the sensor requires maintenance
KLEE 230253Z AUTO 10SM CLR 28/25 A2999 RMK AO2 SLP153 T02830250 53014 $

Conditions at: KLEE observed 23 June 2018  01:53 UTC
Temperature: 28.3°C (83°F)
Dewpoint: 25.0°C (77°F) [RH = 82%]
Pressure (altimeter): 29.97 inches Hg (1015.0 mb)
[Sea-level pressure: 1014.6 mb]
Winds: from the WSW (240 degrees) at 5 MPH (4 knots; 2.1 m/s)
Visibility: 10 or more miles (16+ km)
Ceiling: at least 12,000 feet AGL
Clouds: sky clear below 12,000 feet AGL
Present Weather: automated observation with no human augmentation;
there may or may not be significant weather present at this time
KLEE 230153Z AUTO 24004KT 10SM CLR 28/25 A2997 RMK AO2 SLP146 T02830250

Conditions at: KLEE observed 23 June 2018  00:53 UTC
Temperature: 29.4°C (85°F)
Dewpoint: 24.4°C (76°F) [RH = 75%]
Pressure (altimeter): 29.95 inches Hg (1014.3 mb)
[Sea-level pressure: 1014.0 mb]
Winds: missing
Visibility: 10 or more miles (16+ km)
Ceiling: at least 12,000 feet AGL
Clouds: sky clear below 12,000 feet AGL
Present Weather: automated observation with no human augmentation;
there may or may not be significant weather present at this time
KLEE 230053Z AUTO 10SM CLR 29/24 A2995 RMK AO2 SLP140 T02940244

Conditions at: KLEE observed 22 June 2018  23:53 UTC
Temperature: 30.6°C (87°F)
Dewpoint: 23.3°C (74°F) [RH = 65%]
Pressure (altimeter): 29.95 inches Hg (1014.3 mb)
[Sea-level pressure: 1014.0 mb]
Winds: from the WNW (290 degrees) at 7 MPH (6 knots; 3.1 m/s)
Visibility: 10 or more miles (16+ km)
Ceiling: at least 12,000 feet AGL
Clouds: sky clear below 12,000 feet AGL
Present Weather: automated observation with no human augmentation;
there may or may not be significant weather present at this time
KLEE 222353Z AUTO 29006KT 10SM CLR 31/23 A2995 RMK AO2 LTG DSNT E SLP140 60001 T03060233 10328 20283 53006

Conditions at: KLEE observed 22 June 2018  23:16 UTC
Temperature: 31.1°C (88°F)
Dewpoint: 23.3°C (74°F) [RH = 63%]
Pressure (altimeter): 29.94 inches Hg (1014.0 mb)
Winds: from the WNW (290 degrees) at 9 MPH (8 knots; 4.2 m/s)
Visibility: 10 or more miles (16+ km)
Ceiling: at least 12,000 feet AGL
Clouds: few clouds at 200 feet AGL
Present Weather: automated observation with no human augmentation;
there may or may not be significant weather present at this time
KLEE 222316Z AUTO 29008KT 10SM FEW002 31/23 A2994 RMK AO2 LTG DSNT NE AND E T03110233

Conditions at: KLEE observed 22 June 2018  22:53 UTC
Temperature: 31.7°C (89°F)
Dewpoint: 24.4°C (76°F) [RH = 65%]
Pressure (altimeter): 29.93 inches Hg (1013.6 mb)
[Sea-level pressure: 1013.5 mb]
Winds: from the WNW (290 degrees) at 13 MPH (11 knots; 5.7 m/s)
gusting to 18 MPH (16 knots; 8.3 m/s)
Visibility: 10 or more miles (16+ km)
Ceiling: at least 12,000 feet AGL
Clouds: few clouds at 4100 feet AGL
Present Weather: no significant weather observed at this time
KLEE 222253Z 29011G16KT 10SM FEW041 32/24 A2993 RMK AO2 LTG DSNT NE AND E SLP135 T03170244

Conditions at: KLEE observed 22 June 2018  21:53 UTC
Temperature: 32.2°C (90°F)
Dewpoint: 24.4°C (76°F) [RH = 64%]
Pressure (altimeter): 29.92 inches Hg (1013.3 mb)
[Sea-level pressure: 1013.0 mb]
Winds: from the W (270 degrees) at 10 MPH (9 knots; 4.7 m/s)
Visibility: 10 or more miles (16+ km)
Ceiling: at least 12,000 feet AGL
Clouds: few clouds at 4000 feet AGL
scattered clouds at 4700 feet AGL
Present Weather: no significant weather observed at this time
KLEE 222153Z 27009KT 10SM FEW040 SCT047 32/24 A2992 RMK AO2 LTG DSNT NE-SE SLP130 T03220244

Conditions at: KLEE observed 22 June 2018  20:53 UTC
Temperature: 32.8°C (91°F)
Dewpoint: 23.9°C (75°F) [RH = 60%]
Pressure (altimeter): 29.93 inches Hg (1013.6 mb)
[Sea-level pressure: 1013.3 mb]
Winds: from the W (280 degrees) at 10 MPH (9 knots; 4.7 m/s)
Visibility: 10 or more miles (16+ km)
Ceiling: at least 12,000 feet AGL
Clouds: few clouds at 4200 feet AGL
Present Weather: no significant weather observed at this time
KLEE 222053Z 28009KT 10SM FEW042 33/24 A2993 RMK AO2 LTG DSNT NE-S TSB18 SLP133 60001 T03280239 56014

Conditions at: KLEE observed 22 June 2018  20:39 UTC
Temperature: 32.8°C (91°F)
Dewpoint: 25.0°C (77°F) [RH = 64%]
Pressure (altimeter): 29.93 inches Hg (1013.6 mb)
Winds: missing
Visibility: 10 or more miles (16+ km)
Ceiling: at least 12,000 feet AGL
Clouds: few clouds at 4300 feet AGL
scattered clouds at 9000 feet AGL
Present Weather: no significant weather observed at this time
KLEE 222039Z 10SM FEW043 SCT090 33/25 A2993 RMK AO2 LTG DSNT NE-S TSB18 T03280250

Conditions at: KLEE observed 22 June 2018  20:24 UTC
Temperature: 31.1°C (88°F)
Dewpoint: 25.6°C (78°F) [RH = 73%]
Pressure (altimeter): 29.93 inches Hg (1013.6 mb)
Winds: from the SE (140 degrees) at 6 MPH (5 knots; 2.6 m/s)
Visibility: 10 or more miles (16+ km)
Ceiling: at least 12,000 feet AGL
Clouds: few clouds at 4400 feet AGL
scattered clouds at 9000 feet AGL
Present Weather: TS  (thunderstorm)
KLEE 222024Z 14005KT 10SM TS FEW044 SCT090 31/26 A2993 RMK AO2 LTG DSNT E-S TSB18 T03110256

Conditions at: KLEE observed 22 June 2018  19:53 UTC
Temperature: 31.7°C (89°F)
Dewpoint: 25.6°C (78°F) [RH = 70%]
Pressure (altimeter): 29.93 inches Hg (1013.6 mb)
[Sea-level pressure: 1013.5 mb]
Winds: from the NW (320 degrees) at 7 MPH (6 knots; 3.1 m/s)
Visibility: 10 or more miles (16+ km)
Ceiling: at least 12,000 feet AGL
Clouds: few clouds at 4400 feet AGL
few clouds at 5500 feet AGL
Present Weather: no significant weather observed at this time
KLEE 221953Z 32006KT 10SM FEW044 FEW055 32/26 A2993 RMK AO2 RAB1855E30 TSB20 SLP135 P0001 T03170256

Conditions at: KLEE observed 22 June 2018  19:43 UTC
Temperature: 31.7°C (89°F)
Dewpoint: 25.6°C (78°F) [RH = 70%]
Pressure (altimeter): 29.94 inches Hg (1014.0 mb)
Winds: from the NW (320 degrees) at 6 MPH (5 knots; 2.6 m/s)
Visibility: 10 or more miles (16+ km)
Ceiling: at least 12,000 feet AGL
Clouds: scattered clouds at 4500 feet AGL
scattered clouds at 10000 feet AGL
Present Weather: VCTS  (thunderstorm in vicinity)
KLEE 221943Z 32005KT 10SM VCTS SCT045 SCT100 32/26 A2994 RMK AO2 LTG DSNT SE RAB1855E30 TSB20 P0001 T03170256

Conditions at: KLEE observed 22 June 2018  19:26 UTC
Temperature: 29.4°C (85°F)
Dewpoint: 24.4°C (76°F) [RH = 75%]
Pressure (altimeter): 29.95 inches Hg (1014.3 mb)
Winds: from the NNW (330 degrees) at 9 MPH (8 knots; 4.2 m/s)
Visibility: 7 miles (11 km)
Ceiling: 7000 feet AGL
Clouds: scattered clouds at 4700 feet AGL
broken clouds at 7000 feet AGL
overcast cloud deck at 11000 feet AGL
Present Weather: -TSRA  (light rain associated with thunderstorm(s))
KLEE 221926Z 33008KT 7SM -TSRA SCT047 BKN070 OVC110 29/24 A2995 RMK AO2 RAB1855 TSB20 P0001 T02940244

Conditions at: KLEE observed 22 June 2018  18:53 UTC
Temperature: 30.0°C (86°F)
Dewpoint: 23.9°C (75°F) [RH = 70%]
Pressure (altimeter): 29.96 inches Hg (1014.6 mb)
[Sea-level pressure: 1014.4 mb]
Winds: from the NNW (340 degrees) at 15 MPH (13 knots; 6.8 m/s)
Visibility: 10 or more miles (16+ km)
Ceiling: 4700 feet AGL
Clouds: scattered clouds at 3900 feet AGL
broken clouds at 4700 feet AGL
broken clouds at 6000 feet AGL
Present Weather: no significant weather observed at this time
KLEE 221853Z 34013KT 10SM SCT039 BKN047 BKN060 30/24 A2996 RMK AO2 SLP144 T03000239

Conditions at: KLEE observed 22 June 2018  17:53 UTC
Temperature: 31.7°C (89°F)
Dewpoint: 25.0°C (77°F) [RH = 68%]
Pressure (altimeter): 29.97 inches Hg (1015.0 mb)
[Sea-level pressure: 1014.7 mb]
Winds: from the WNW (300 degrees) at 6 MPH (5 knots; 2.6 m/s)
Visibility: 10 or more miles (16+ km)
Ceiling: 4000 feet AGL
Clouds: broken clouds at 4000 feet AGL
broken clouds at 5500 feet AGL
Present Weather: no significant weather observed at this time
KLEE 221753Z 30005KT 10SM BKN040 BKN055 32/25 A2997 RMK AO2 SLP147 T03170250 10328 20267 58007

Conditions at: KLEE observed 22 June 2018  17:19 UTC
Temperature: 32.2°C (90°F)
Dewpoint: 23.9°C (75°F) [RH = 62%]
Pressure (altimeter): 29.97 inches Hg (1015.0 mb)
Winds: variable direction winds at 5 MPH (4 knots; 2.1 m/s)
Visibility: 10 or more miles (16+ km)
Ceiling: at least 12,000 feet AGL
Clouds: few clouds at 4000 feet AGL
Present Weather: no significant weather observed at this time
KLEE 221719Z VRB04KT 10SM FEW040 32/24 A2997 RMK AO2 T03220239

Conditions at: KLEE observed 22 June 2018  17:04 UTC
Temperature: 32.2°C (90°F)
Dewpoint: 23.9°C (75°F) [RH = 62%]
Pressure (altimeter): 29.98 inches Hg (1015.3 mb)
Winds: from the SSW (210 degrees) at 7 MPH (6 knots; 3.1 m/s)
Visibility: 10 or more miles (16+ km)
Ceiling: at least 12,000 feet AGL
Clouds: few clouds at 4000 feet AGL
Present Weather: VCTS  (thunderstorm in vicinity)
KLEE 221704Z 21006KT 10SM VCTS FEW040 32/24 A2998 RMK AO2 T03220239

Conditions at: KLEE observed 22 June 2018  16:53 UTC
Temperature: 31.7°C (89°F)
Dewpoint: 23.9°C (75°F) [RH = 63%]
Pressure (altimeter): 29.98 inches Hg (1015.3 mb)
[Sea-level pressure: 1015.2 mb]
Winds: from the W (280 degrees) at 7 MPH (6 knots; 3.1 m/s)
Visibility: 10 or more miles (16+ km)
Ceiling: at least 12,000 feet AGL
Clouds: few clouds at 3900 feet AGL
Present Weather: no significant weather observed at this time
KLEE 221653Z 28006KT 10SM FEW039 32/24 A2998 RMK AO2 SLP152 T03170239

Conditions at: KLEE observed 22 June 2018  15:53 UTC
Temperature: 31.1°C (88°F)
Dewpoint: 25.0°C (77°F) [RH = 70%]
Pressure (altimeter): 29.99 inches Hg (1015.7 mb)
[Sea-level pressure: 1015.2 mb]
Winds: from the W (280 degrees) at 10 MPH (9 knots; 4.7 m/s)
Visibility: 10 or more miles (16+ km)
Ceiling: at least 12,000 feet AGL
Clouds: few clouds at 3200 feet AGL
few clouds at 5500 feet AGL
scattered clouds at 8500 feet AGL
Present Weather: no significant weather observed at this time
KLEE 221553Z 28009KT 10SM FEW032 FEW055 SCT085 31/25 A2999 RMK AO2 SLP152 T03110250

Conditions at: KLEE observed 22 June 2018  14:53 UTC
Temperature: 30.6°C (87°F)
Dewpoint: 25.0°C (77°F) [RH = 72%]
Pressure (altimeter): 29.99 inches Hg (1015.7 mb)
[Sea-level pressure: 1015.4 mb]
Winds: from the W (270 degrees) at 6 MPH (5 knots; 2.6 m/s)
Visibility: 10 or more miles (16+ km)
Ceiling: at least 12,000 feet AGL
Clouds: sky clear below 12,000 feet AGL
Present Weather: no significant weather observed at this time
KLEE 221453Z 27005KT 10SM CLR 31/25 A2999 RMK AO2 SLP154 T03060250 50001

Conditions at: KLEE observed 22 June 2018  13:53 UTC
Temperature: 28.9°C (84°F)
Dewpoint: 25.6°C (78°F) [RH = 82%]
Pressure (altimeter): 29.99 inches Hg (1015.7 mb)
[Sea-level pressure: 1015.5 mb]
Winds: from the W (270 degrees) at 8 MPH (7 knots; 3.6 m/s)
Visibility: 10 or more miles (16+ km)
Ceiling: at least 12,000 feet AGL
Clouds: sky clear below 12,000 feet AGL
Present Weather: no significant weather observed at this time
KLEE 221353Z 27007KT 10SM CLR 29/26 A2999 RMK AO2 SLP155 T02890256

Conditions at: KLEE observed 22 June 2018  12:53 UTC
Temperature: 27.2°C (81°F)
Dewpoint: 25.6°C (78°F) [RH = 91%]
Pressure (altimeter): 30.00 inches Hg (1016.0 mb)
[Sea-level pressure: 1015.8 mb]
Winds: from the W (260 degrees) at 5 MPH (4 knots; 2.1 m/s)
Visibility: 10 or more miles (16+ km)
Ceiling: at least 12,000 feet AGL
Clouds: sky clear below 12,000 feet AGL
Present Weather: no significant weather observed at this time
KLEE 221253Z 26004KT 10SM CLR 27/26 A3000 RMK AO2 SLP158 T02720256

Conditions at: KLEE observed 22 June 2018  11:53 UTC
Temperature: 26.7°C (80°F)
Dewpoint: 25.6°C (78°F) [RH = 94%]
Pressure (altimeter): 29.98 inches Hg (1015.3 mb)
[Sea-level pressure: 1015.2 mb]
Winds: from the W (270 degrees) at 5 MPH (4 knots; 2.1 m/s)
Visibility: 10 or more miles (16+ km)
Ceiling: at least 12,000 feet AGL
Clouds: sky clear below 12,000 feet AGL
Present Weather: no significant weather observed at this time
KLEE 221153Z 27004KT 10SM CLR 27/26 A2998 RMK AO2 SLP152 70101 T02670256 10272 20261 53021

Conditions at: KLEE observed 22 June 2018  10:53 UTC
Temperature: 26.1°C (79°F)
Dewpoint: 25.0°C (77°F) [RH = 94%]
Pressure (altimeter): 29.96 inches Hg (1014.6 mb)
[Sea-level pressure: 1014.4 mb]
Winds: from the W (260 degrees) at 3 MPH (3 knots; 1.6 m/s)
Visibility: 10 or more miles (16+ km)
Ceiling: at least 12,000 feet AGL
Clouds: sky clear below 12,000 feet AGL
Present Weather: no significant weather observed at this time
KLEE 221053Z 26003KT 10SM CLR 26/25 A2996 RMK AO2 SLP144 T02610250

Conditions at: KLEE observed 22 June 2018  09:53 UTC
Temperature: 26.1°C (79°F)
Dewpoint: 25.6°C (78°F) [RH = 97%]
Pressure (altimeter): 29.94 inches Hg (1014.0 mb)
[Sea-level pressure: 1013.7 mb]
Winds: from the W (260 degrees) at 5 MPH (4 knots; 2.1 m/s)
Visibility: 10 or more miles (16+ km)
Ceiling: at least 12,000 feet AGL
Clouds: sky clear below 12,000 feet AGL
Present Weather: automated observation with no human augmentation;
there may or may not be significant weather present at this time
KLEE 220953Z AUTO 26004KT 10SM CLR 26/26 A2994 RMK AO2 SLP137 T02610256

Conditions at: KLEE observed 22 June 2018  08:53 UTC
Temperature: 26.1°C (79°F)
Dewpoint: 25.6°C (78°F) [RH = 97%]
Pressure (altimeter): 29.92 inches Hg (1013.3 mb)
[Sea-level pressure: 1013.2 mb]
Winds: from the WSW (240 degrees) at 6 MPH (5 knots; 2.6 m/s)
Visibility: 9 miles (14 km)
Ceiling: at least 12,000 feet AGL
Clouds: sky clear below 12,000 feet AGL
Present Weather: automated observation with no human augmentation;
there may or may not be significant weather present at this time
KLEE 220853Z AUTO 24005KT 9SM CLR 26/26 A2992 RMK AO2 SLP132 T02610256 55002

Conditions at: KLEE observed 22 June 2018  07:53 UTC
Temperature: 26.7°C (80°F)
Dewpoint: 25.6°C (78°F) [RH = 94%]
Pressure (altimeter): 29.92 inches Hg (1013.3 mb)
[Sea-level pressure: 1012.9 mb]
Winds: from the SW (230 degrees) at 6 MPH (5 knots; 2.6 m/s)
Visibility: 10 or more miles (16+ km)
Ceiling: at least 12,000 feet AGL
Clouds: sky clear below 12,000 feet AGL
Present Weather: automated observation with no human augmentation;
there may or may not be significant weather present at this time
KLEE 220753Z AUTO 23005KT 10SM CLR 27/26 A2992 RMK AO2 SLP129 T02670256

Conditions at: KLEE observed 22 June 2018  06:53 UTC
Temperature: 26.7°C (80°F)
Dewpoint: 25.6°C (78°F) [RH = 94%]
Pressure (altimeter): 29.93 inches Hg (1013.6 mb)
[Sea-level pressure: 1013.3 mb]
Winds: from the SW (220 degrees) at 6 MPH (5 knots; 2.6 m/s)
Visibility: 10 or more miles (16+ km)
Ceiling: at least 12,000 feet AGL
Clouds: scattered clouds at 2000 feet AGL
Present Weather: automated observation with no human augmentation;
there may or may not be significant weather present at this time
KLEE 220653Z AUTO 22005KT 10SM SCT020 27/26 A2993 RMK AO2 SLP133 T02670256

Conditions at: KLEE observed 22 June 2018  05:53 UTC
Temperature: 26.7°C (80°F)
Dewpoint: 25.6°C (78°F) [RH = 94%]
Pressure (altimeter): 29.93 inches Hg (1013.6 mb)
[Sea-level pressure: 1013.4 mb]
Winds: from the SW (220 degrees) at 5 MPH (4 knots; 2.1 m/s)
Visibility: 10 or more miles (16+ km)
Ceiling: at least 12,000 feet AGL
Clouds: sky clear below 12,000 feet AGL
Present Weather: automated observation with no human augmentation;
there may or may not be significant weather present at this time
KLEE 220553Z AUTO 22004KT 10SM CLR 27/26 A2993 RMK AO2 SLP134 60000 T02670256 10278 20267 58014

Conditions at: KLEE observed 22 June 2018  04:53 UTC
Temperature: 27.2°C (81°F)
Dewpoint: 26.1°C (79°F) [RH = 94%]
Pressure (altimeter): 29.94 inches Hg (1014.0 mb)
[Sea-level pressure: 1013.8 mb]
Winds: from the W (260 degrees) at 7 MPH (6 knots; 3.1 m/s)
Visibility: 10 or more miles (16+ km)
Ceiling: at least 12,000 feet AGL
Clouds: sky clear below 12,000 feet AGL
Present Weather: automated observation with no human augmentation;
there may or may not be significant weather present at this time
KLEE 220453Z AUTO 26006KT 10SM CLR 27/26 A2994 RMK AO2 SLP138 T02720261 403000244

Conditions at: KLEE observed 22 June 2018  03:53 UTC
Temperature: 27.2°C (81°F)
Dewpoint: 26.1°C (79°F) [RH = 94%]
Pressure (altimeter): 29.96 inches Hg (1014.6 mb)
[Sea-level pressure: 1014.4 mb]
Winds: from the SW (230 degrees) at 3 MPH (3 knots; 1.6 m/s)
Visibility: 10 or more miles (16+ km)
Ceiling: at least 12,000 feet AGL
Clouds: sky clear below 12,000 feet AGL
Present Weather: automated observation with no human augmentation;
there may or may not be significant weather present at this time
KLEE 220353Z AUTO 23003KT 10SM CLR 27/26 A2996 RMK AO2 SLP144 T02720261

Conditions at: KLEE observed 22 June 2018  02:53 UTC
Temperature: 27.2°C (81°F)
Dewpoint: 26.1°C (79°F) [RH = 94%]
Pressure (altimeter): 29.97 inches Hg (1015.0 mb)
[Sea-level pressure: 1014.8 mb]
Winds: from the WSW (250 degrees) at 3 MPH (3 knots; 1.6 m/s)
Visibility: 10 or more miles (16+ km)
Ceiling: at least 12,000 feet AGL
Clouds: sky clear below 12,000 feet AGL
Present Weather: automated observation with no human augmentation;
there may or may not be significant weather present at this time
KLEE 220253Z AUTO 25003KT 10SM CLR 27/26 A2997 RMK AO2 SLP148 60000 T02720261 51017

Conditions at: KLEE observed 22 June 2018  01:53 UTC
Temperature: 27.8°C (82°F)
Dewpoint: 26.1°C (79°F) [RH = 91%]
Pressure (altimeter): 29.96 inches Hg (1014.6 mb)
[Sea-level pressure: 1014.4 mb]
Winds: from the WSW (240 degrees) at 6 MPH (5 knots; 2.6 m/s)
Visibility: 10 or more miles (16+ km)
Ceiling: at least 12,000 feet AGL
Clouds: sky clear below 12,000 feet AGL
Present Weather: automated observation with no human augmentation;
there may or may not be significant weather present at this time
KLEE 220153Z AUTO 24005KT 10SM CLR 28/26 A2996 RMK AO2 RAB00E40 SLP144 P0000 T02780261

Conditions at: KLEE observed 22 June 2018  00:53 UTC
Temperature: 27.2°C (81°F)
Dewpoint: 26.1°C (79°F) [RH = 94%]
Pressure (altimeter): 29.94 inches Hg (1014.0 mb)
[Sea-level pressure: 1013.7 mb]
Winds: calm
Visibility: 10 or more miles (16+ km)
Ceiling: at least 12,000 feet AGL
Clouds: sky clear below 12,000 feet AGL
Present Weather: automated observation with no human augmentation;
there may or may not be significant weather present at this time
KLEE 220053Z AUTO 00000KT 10SM CLR 27/26 A2994 RMK AO2 SLP137 T02720261

Conditions at: KLEE observed 21 June 2018  23:53 UTC
Temperature: 27.8°C (82°F)
Dewpoint: 26.1°C (79°F) [RH = 91%]
Pressure (altimeter): 29.92 inches Hg (1013.3 mb)
[Sea-level pressure: 1013.1 mb]
Winds: from the SSW (210 degrees) at 3 MPH (3 knots; 1.6 m/s)
Visibility: 10 or more miles (16+ km)
Ceiling: at least 12,000 feet AGL
Clouds: sky clear below 12,000 feet AGL
Present Weather: no significant weather observed at this time
KLEE 212353Z 21003KT 10SM CLR 28/26 A2992 RMK AO2 SLP131 60000 T02780261 10283 20256 55001

Conditions at: KLEE observed 21 June 2018  22:53 UTC
Temperature: 27.8°C (82°F)
Dewpoint: 25.6°C (78°F) [RH = 88%]
Pressure (altimeter): 29.90 inches Hg (1012.6 mb)
[Sea-level pressure: 1012.4 mb]
Winds: from the WSW (240 degrees) at 5 MPH (4 knots; 2.1 m/s)
Visibility: 10 or more miles (16+ km)
Ceiling: at least 12,000 feet AGL
Clouds: sky clear below 12,000 feet AGL
Present Weather: no significant weather observed at this time
KLEE 212253Z 24004KT 10SM CLR 28/26 A2990 RMK AO2 SLP124 T02780256

Conditions at: KLEE observed 21 June 2018  21:53 UTC
Temperature: 27.8°C (82°F)
Dewpoint: 25.6°C (78°F) [RH = 88%]
Pressure (altimeter): 29.91 inches Hg (1013.0 mb)
[Sea-level pressure: 1012.6 mb]
Winds: from the W (280 degrees) at 6 MPH (5 knots; 2.6 m/s)
Visibility: 10 or more miles (16+ km)
Ceiling: at least 12,000 feet AGL
Clouds: sky clear below 12,000 feet AGL
Present Weather: no significant weather observed at this time
KLEE 212153Z 28005KT 10SM CLR 28/26 A2991 RMK AO2 SLP126 T02780256

Conditions at: KLEE observed 21 June 2018  20:53 UTC
Temperature: 27.8°C (82°F)
Dewpoint: 26.1°C (79°F) [RH = 91%]
Pressure (altimeter): 29.92 inches Hg (1013.3 mb)
[Sea-level pressure: 1013.2 mb]
Winds: from the WSW (250 degrees) at 7 MPH (6 knots; 3.1 m/s)
Visibility: 10 or more miles (16+ km)
Ceiling: at least 12,000 feet AGL
Clouds: sky clear below 12,000 feet AGL
Present Weather: no significant weather observed at this time
KLEE 212053Z 25006KT 10SM CLR 28/26 A2992 RMK AO2 LTG DSNT NE SLP132 60000 T02780261 56016

Conditions at: KLEE observed 21 June 2018  19:53 UTC
Temperature: 26.7°C (80°F)
Dewpoint: 25.6°C (78°F) [RH = 94%]
Pressure (altimeter): 29.94 inches Hg (1014.0 mb)
[Sea-level pressure: 1013.7 mb]
Winds: from the WNW (300 degrees) at 5 MPH (4 knots; 2.1 m/s)
Visibility: 10 or more miles (16+ km)
Ceiling: at least 12,000 feet AGL
Clouds: few clouds at 3700 feet AGL
Present Weather: no significant weather observed at this time
KLEE 211953Z 30004KT 10SM FEW037 27/26 A2994 RMK AO2 RAB13E30 SLP137 P0000 T02670256

Conditions at: KLEE observed 21 June 2018  18:53 UTC
Temperature: 26.1°C (79°F)
Dewpoint: 25.6°C (78°F) [RH = 97%]
Pressure (altimeter): 29.95 inches Hg (1014.3 mb)
[Sea-level pressure: 1013.9 mb]
Winds: from the WNW (290 degrees) at 8 MPH (7 knots; 3.6 m/s)
Visibility: 10 or more miles (16+ km)
Ceiling: at least 12,000 feet AGL
Clouds: scattered clouds at 4100 feet AGL
scattered clouds at 5500 feet AGL
Present Weather: no significant weather observed at this time
KLEE 211853Z 29007KT 10SM SCT041 SCT055 26/26 A2995 RMK AO2 RAB33E44 SLP139 P0000 T02610256

Conditions at: KLEE observed 21 June 2018  17:53 UTC
Temperature: 25.6°C (78°F)
Dewpoint: 25.0°C (77°F) [RH = 96%]
Pressure (altimeter): 29.97 inches Hg (1015.0 mb)
[Sea-level pressure: 1014.8 mb]
Winds: from the WSW (250 degrees) at 5 MPH (4 knots; 2.1 m/s)
Visibility: 10 or more miles (16+ km)
Ceiling: at least 12,000 feet AGL
Clouds: sky clear below 12,000 feet AGL
Present Weather: no significant weather observed at this time
KLEE 211753Z 25004KT 10SM CLR 26/25 A2997 RMK AO2 LTG DSNT NE AND E RAB08E21 SLP148 P0000 60101 T02560250 10300 20244 51008

Conditions at: KLEE observed 21 June 2018  17:36 UTC
Temperature: 25.6°C (78°F)
Dewpoint: 25.0°C (77°F) [RH = 96%]
Pressure (altimeter): 29.97 inches Hg (1015.0 mb)
Winds: from the WSW (250 degrees) at 3 MPH (3 knots; 1.6 m/s)
Visibility: 10 or more miles (16+ km)
Ceiling: at least 12,000 feet AGL
Clouds: few clouds at 3200 feet AGL
Present Weather: no significant weather observed at this time
KLEE 211736Z 25003KT 10SM FEW032 26/25 A2997 RMK AO2 LTG DSNT NE RAB08E21 P0000 T02560250

Conditions at: KLEE observed 21 June 2018  17:29 UTC
Temperature: 25.6°C (78°F)
Dewpoint: 25.0°C (77°F) [RH = 96%]
Pressure (altimeter): 29.97 inches Hg (1015.0 mb)
Winds: from the WSW (240 degrees) at 3 MPH (3 knots; 1.6 m/s)
Visibility: 10 or more miles (16+ km)
Ceiling: at least 12,000 feet AGL
Clouds: scattered clouds at 3300 feet AGL
Present Weather: VCTS  (thunderstorm in vicinity)
KLEE 211729Z 24003KT 10SM VCTS SCT033 26/25 A2997 RMK AO2 LTG DSNT N AND NE RAB08E21 P0000 T02560250

Conditions at: KLEE observed 21 June 2018  17:00 UTC
Temperature: 25.6°C (78°F)
Dewpoint: 25.0°C (77°F) [RH = 96%]
Pressure (altimeter): 29.97 inches Hg (1015.0 mb)
Winds: variable direction winds at 7 MPH (6 knots; 3.1 m/s)
Visibility: 10 or more miles (16+ km)
Ceiling: at least 12,000 feet AGL
Clouds: scattered clouds at 800 feet AGL
scattered clouds at 1300 feet AGL
Present Weather: no significant weather observed at this time
KLEE 211700Z VRB06KT 10SM SCT008 SCT013 26/25 A2997 RMK AO2 LTG DSNT N-SE T02560250

Conditions at: KLEE observed 21 June 2018  16:53 UTC
Temperature: 25.6°C (78°F)
Dewpoint: 25.0°C (77°F) [RH = 96%]
Pressure (altimeter): 29.97 inches Hg (1015.0 mb)
[Sea-level pressure: 1014.8 mb]
Winds: from the SW (220 degrees) at 6 MPH (5 knots; 2.6 m/s)
Visibility: 10 or more miles (16+ km)
Ceiling: 1000 feet AGL
Clouds: broken clouds at 1000 feet AGL
broken clouds at 1300 feet AGL
Present Weather: no significant weather observed at this time
KLEE 211653Z 22005KT 10SM BKN010 BKN013 26/25 A2997 RMK AO2 LTG DSNT N-SE RAE15 TSE07 CIG 007V012 SLP148 P0002 T02560250

Conditions at: KLEE observed 21 June 2018  16:44 UTC
Temperature: 25.6°C (78°F)
Dewpoint: 25.0°C (77°F) [RH = 96%]
Pressure (altimeter): 29.97 inches Hg (1015.0 mb)
Winds: variable direction winds at 6 MPH (5 knots; 2.6 m/s)
Visibility: 10 or more miles (16+ km)
Ceiling: at least 12,000 feet AGL
Clouds: scattered clouds at 1000 feet AGL
Present Weather: no significant weather observed at this time
KLEE 211644Z VRB05KT 10SM SCT010 26/25 A2997 RMK AO2 LTG DSNT N-SE RAE15 TSE07 P0002 T02560250